Time;durP1;ratioP1;P1;durP2;ratioP2;P2;SDS_P1;SDS_P2;PMS_P1;PMS_P2;Temp;Humidity;BMP_temperature;BMP_pressure;BME280_temperature;BME280_humidity;BME280_pressure;Samples;Min_cycle;Max_cycle;Signal;HPM_P1;HPM_P2
2021/08/01 00:01:48;;;;;;;8.85;7.67;;;;;;;24.46;52.69;99739.30;1734563;81;21143;-80
2021/08/01 00:04:17;;;;;;;8.40;6.97;;;;;;;24.42;52.85;99743.16;1763661;80;21029;-80
2021/08/01 00:06:43;;;;;;;7.53;6.90;;;;;;;24.37;53.08;99730.97;1750705;80;21053;-80
2021/08/01 00:09:11;;;;;;;6.85;6.28;;;;;;;24.38;53.19;99737.25;1750688;80;21151;-78
2021/08/01 00:11:39;;;;;;;6.83;6.15;;;;;;;24.34;53.32;99728.86;1731495;82;21072;-79
2021/08/01 00:14:05;;;;;;;6.97;6.28;;;;;;;24.32;53.30;99730.23;1718211;82;21116;-80
2021/08/01 00:16:31;;;;;;;7.50;6.65;;;;;;;24.27;53.31;99725.13;1719600;83;21089;-79
2021/08/01 00:18:58;;;;;;;8.90;6.47;;;;;;;24.28;53.44;99721.31;1726773;81;21045;-80
2021/08/01 00:21:25;;;;;;;11.45;7.00;;;;;;;24.28;53.37;99724.03;1730484;81;21590;-80
2021/08/01 00:23:52;;;;;;;7.17;6.58;;;;;;;24.27;53.59;99725.69;1726295;81;21121;-80
2021/08/01 00:26:18;;;;;;;7.78;5.65;;;;;;;24.21;53.81;99731.75;1707725;81;21083;-80
2021/08/01 00:28:44;;;;;;;8.25;6.37;;;;;;;24.18;53.98;99731.53;1711785;81;21001;-80
2021/08/01 00:31:11;;;;;;;10.80;6.33;;;;;;;24.14;54.09;99738.11;1709719;81;21490;-80
2021/08/01 00:33:37;;;;;;;6.53;5.92;;;;;;;24.13;54.19;99729.70;1705653;81;21057;-80
2021/08/01 00:36:03;;;;;;;6.75;6.15;;;;;;;24.15;54.22;99719.86;1736425;81;21108;-80
2021/08/01 00:38:30;;;;;;;6.62;5.85;;;;;;;24.17;54.27;99726.64;1722587;81;21161;-80
2021/08/01 00:40:56;;;;;;;6.55;5.58;;;;;;;24.15;54.48;99723.41;1710732;81;21043;-80
2021/08/01 00:43:22;;;;;;;5.80;5.08;;;;;;;24.15;54.73;99716.61;1727128;81;21181;-81
2021/08/01 00:45:50;;;;;;;7.08;6.35;;;;;;;24.14;54.76;99720.98;1701677;83;21073;-79
2021/08/01 00:48:16;;;;;;;5.25;4.95;;;;;;;24.13;54.86;99725.63;1675558;83;21026;-80
2021/08/01 00:50:43;;;;;;;7.47;6.12;;;;;;;24.07;55.32;99727.60;1697499;83;21053;-79
2021/08/01 00:53:13;;;;;;;8.35;6.60;;;;;;;24.07;55.45;99733.58;1704415;83;21045;-79
2021/08/01 00:55:41;;;;;;;9.15;6.03;;;;;;;24.03;55.69;99730.62;1711315;82;21138;-78
2021/08/01 00:58:08;;;;;;;6.17;5.58;;;;;;;24.03;55.81;99744.80;1726581;82;21100;-82
2021/08/01 01:03:50;;;;;;;10.05;5.83;;;;;;;24.02;56.08;99730.95;1724571;82;21672;-81
2021/08/01 01:06:25;;;;;;;5.78;5.33;;;;;;;24.01;56.28;99732.03;1724396;82;21114;-81
2021/08/01 01:09:03;;;;;;;5.92;5.30;;;;;;;24.02;56.46;99733.67;1711234;82;21077;-81
2021/08/01 01:11:51;;;;;;;8.75;5.53;;;;;;;24.03;56.43;99727.10;1724934;81;21656;-80
2021/08/01 01:14:22;;;;;;;9.65;6.70;;;;;;;24.03;56.45;99729.27;1730914;82;22260;-80
2021/08/01 01:16:55;;;;;;;7.03;5.62;;;;;;;24.01;56.88;99732.03;1722645;82;21142;-81
2021/08/01 01:19:54;;;;;;;6.87;6.17;;;;;;;24.01;56.95;99727.95;1714265;82;21072;-80
2021/08/01 01:22:41;;;;;;;5.90;5.30;;;;;;;24.00;57.00;99732.59;1682644;83;21222;-81
2021/08/01 01:25:35;;;;;;;5.97;5.45;;;;;;;24.00;57.21;99729.06;1684953;84;21617;-80
2021/08/01 01:28:35;;;;;;;6.22;5.65;;;;;;;23.98;57.45;99721.72;1670384;84;22118;-79
2021/08/01 01:31:25;;;;;;;6.12;5.33;;;;;;;23.95;57.67;99720.96;1712142;81;21077;-80
2021/08/01 01:34:39;;;;;;;7.92;5.78;;;;;;;23.92;57.81;99725.06;1711371;81;21678;-78
2021/08/01 01:37:09;;;;;;;6.40;4.80;;;;;;;23.99;57.64;99717.91;1672736;84;21095;-81
2021/08/01 01:39:39;;;;;;;6.95;5.97;;;;;;;24.02;57.69;99722.78;1666750;85;21080;-80
2021/08/01 01:42:17;;;;;;;5.97;5.47;;;;;;;24.00;57.68;99724.98;1653098;85;21210;-79
2021/08/01 01:44:54;;;;;;;8.98;6.80;;;;;;;23.98;57.76;99717.64;1654345;85;21112;-80
2021/08/01 01:47:24;;;;;;;7.20;6.37;;;;;;;23.92;57.64;99715.53;1646365;85;21045;-79
2021/08/01 01:49:55;;;;;;;7.78;5.95;;;;;;;23.90;57.76;99714.48;1649348;85;21089;-81
2021/08/01 01:52:25;;;;;;;6.25;5.42;;;;;;;23.89;57.76;99711.49;1650435;85;21129;-81
2021/08/01 01:55:09;;;;;;;7.22;6.60;;;;;;;23.90;57.86;99711.77;1628026;84;21762;-81
2021/08/01 01:57:38;;;;;;;6.53;5.92;;;;;;;23.84;57.76;99701.22;1677639;84;21014;-80
2021/08/01 02:00:05;;;;;;;6.92;6.22;;;;;;;23.79;57.80;99706.20;1662767;85;21039;-79
2021/08/01 02:02:36;;;;;;;7.22;6.62;;;;;;;23.79;57.80;99702.12;1690377;83;21022;-80
2021/08/01 02:05:04;;;;;;;7.10;6.20;;;;;;;23.80;57.87;99696.11;1665779;84;21611;-82
2021/08/01 02:07:49;;;;;;;6.65;6.03;;;;;;;23.77;58.08;99693.41;1698553;83;21209;-80
2021/08/01 02:10:31;;;;;;;5.75;5.20;;;;;;;23.77;58.32;99693.41;1691847;84;21150;-80
2021/08/01 02:13:05;;;;;;;8.50;6.80;;;;;;;23.82;58.23;99690.63;1680504;83;21051;-81
2021/08/01 02:15:45;;;;;;;6.28;5.87;;;;;;;23.83;58.01;99697.70;1693806;83;21063;-81
2021/08/01 02:18:37;;;;;;;7.92;6.25;;;;;;;23.79;58.34;99695.31;1687979;83;21081;-81
2021/08/01 02:21:06;;;;;;;6.53;6.08;;;;;;;23.72;58.46;99693.47;1648888;86;21103;-81
2021/08/01 02:23:42;;;;;;;6.15;5.75;;;;;;;23.68;58.51;99691.08;1718211;82;21466;-79
2021/08/01 02:26:12;;;;;;;8.20;7.42;;;;;;;23.64;58.95;99690.01;1691801;84;21054;-79
2021/08/01 02:28:40;;;;;;;11.20;6.33;;;;;;;23.59;58.97;99681.94;1663656;85;21047;-79
2021/08/01 02:31:09;;;;;;;7.33;6.08;;;;;;;23.58;59.06;99692.54;1675096;84;21182;-80
2021/08/01 02:33:36;;;;;;;7.75;6.22;;;;;;;23.62;58.93;99694.94;1683283;84;21133;-80
2021/08/01 02:36:08;;;;;;;6.08;5.67;;;;;;;23.68;58.79;99692.43;1667656;84;21052;-81
2021/08/01 02:38:39;;;;;;;6.87;6.47;;;;;;;23.70;58.65;99692.39;1664117;85;21069;-81
2021/08/01 02:41:11;;;;;;;6.83;6.20;;;;;;;23.75;58.56;99690.14;1661633;84;21642;-80
2021/08/01 02:43:38;;;;;;;6.83;6.28;;;;;;;23.81;58.59;99698.55;1639650;85;21697;-80
2021/08/01 02:46:06;;;;;;;6.72;6.05;;;;;;;23.85;58.51;99699.58;1681429;84;21030;-79
2021/08/01 02:48:34;;;;;;;7.15;6.37;;;;;;;23.85;58.80;99694.14;1678648;84;21050;-80
2021/08/01 02:51:04;;;;;;;7.67;6.97;;;;;;;23.86;58.57;99702.55;1681475;83;21045;-80
2021/08/01 02:53:42;;;;;;;6.70;6.20;;;;;;;23.90;58.62;99700.88;1676087;84;21104;-79
2021/08/01 02:56:10;;;;;;;8.13;6.17;;;;;;;23.91;58.71;99703.05;1652095;85;21624;-81
2021/08/01 02:58:39;;;;;;;7.33;5.65;;;;;;;23.93;58.53;99697.31;1642743;85;21099;-80
2021/08/01 03:01:10;;;;;;;6.08;5.50;;;;;;;23.91;58.67;99701.68;1651065;85;21568;-80
2021/08/01 03:03:40;;;;;;;6.37;5.87;;;;;;;23.99;58.64;99698.86;1647000;86;21088;-80
2021/08/01 03:06:09;;;;;;;7.37;6.47;;;;;;;24.10;58.57;99695.69;1620348;87;21022;-80
2021/08/01 03:08:36;;;;;;;6.22;5.62;;;;;;;24.33;57.87;99700.55;1618900;86;21132;-80
2021/08/01 03:11:03;;;;;;;7.33;6.58;;;;;;;24.56;57.58;99694.20;1648487;86;21076;-79
2021/08/01 03:13:29;;;;;;;6.58;6.05;;;;;;;24.68;57.49;99702.73;1623300;86;21147;-80
2021/08/01 03:15:58;;;;;;;6.60;6.03;;;;;;;24.65;57.28;99700.59;1646144;85;21038;-80
2021/08/01 03:18:25;;;;;;;8.30;6.37;;;;;;;24.57;57.24;99705.94;1647474;85;21054;-80
2021/08/01 03:20:52;;;;;;;6.40;6.00;;;;;;;24.53;57.35;99709.80;1642771;85;21122;-80
2021/08/01 03:23:21;;;;;;;7.65;7.10;;;;;;;24.59;57.92;99715.42;1659143;84;21017;-82
2021/08/01 03:26:05;;;;;;;7.10;5.70;;;;;;;24.67;57.41;99710.64;1660727;84;21033;-80
2021/08/01 03:28:32;;;;;;;6.75;6.15;;;;;;;24.81;56.96;99713.99;1678801;84;21123;-81
2021/08/01 03:30:59;;;;;;;7.03;6.53;;;;;;;24.99;56.52;99715.83;1672214;84;21056;-80
2021/08/01 03:33:27;;;;;;;8.93;7.22;;;;;;;25.01;56.18;99716.34;1677136;82;21687;-81
2021/08/01 03:35:53;;;;;;;8.23;7.03;;;;;;;24.92;56.49;99718.16;1707652;83;21046;-82
2021/08/01 03:38:27;;;;;;;7.80;7.03;;;;;;;24.98;56.57;99718.88;1713949;81;21133;-82
2021/08/01 03:41:12;;;;;;;9.23;8.43;;;;;;;25.21;55.92;99723.36;1708084;82;21121;-83
2021/08/01 03:43:38;;;;;;;8.38;7.08;;;;;;;25.58;55.18;99727.59;1703742;82;21072;-83
2021/08/01 03:46:04;;;;;;;8.03;6.95;;;;;;;25.87;54.56;99725.12;1652410;84;21775;-81
2021/08/01 03:48:33;;;;;;;7.95;7.25;;;;;;;26.12;53.85;99727.88;1643605;85;21098;-82
2021/08/01 03:50:59;;;;;;;7.53;6.90;;;;;;;26.33;53.13;99733.68;1639461;86;21680;-82
2021/08/01 03:53:26;;;;;;;9.63;6.83;;;;;;;26.27;53.07;99741.75;1640980;86;21110;-80
2021/08/01 03:55:52;;;;;;;7.60;6.40;;;;;;;26.03;53.48;99738.70;1648098;84;21105;-81
2021/08/01 03:58:18;;;;;;;8.18;7.35;;;;;;;25.85;53.77;99737.70;1705463;82;21024;-81
2021/08/01 04:00:48;;;;;;;8.50;7.78;;;;;;;25.66;54.34;99743.27;1678158;83;21593;-81
2021/08/01 04:03:15;;;;;;;8.65;7.40;;;;;;;25.48;54.90;99745.54;1667656;84;21004;-82
2021/08/01 04:05:41;;;;;;;8.50;7.70;;;;;;;25.22;55.51;99745.44;1667837;84;21060;-82
2021/08/01 04:08:07;;;;;;;9.70;8.78;;;;;;;25.06;56.26;99750.34;1662319;85;21175;-81
2021/08/01 04:10:35;;;;;;;14.33;9.43;;;;;;;24.89;56.67;99747.93;1665015;84;21090;-81
2021/08/01 04:13:03;;;;;;;9.15;8.35;;;;;;;24.69;56.94;99755.31;1648668;83;21216;-81
2021/08/01 04:15:31;;;;;;;11.15;8.38;;;;;;;24.48;57.40;99752.86;1686194;83;21680;-81
2021/08/01 04:17:58;;;;;;;15.25;8.63;;;;;;;24.35;57.67;99750.08;1683666;83;21449;-81
2021/08/01 04:20:25;;;;;;;13.95;11.28;;;;;;;24.26;58.03;99758.92;1687562;83;21152;-81
2021/08/01 04:22:53;;;;;;;10.58;9.58;;;;;;;24.23;58.33;99760.86;1687367;83;21559;-81
2021/08/01 04:25:20;;;;;;;14.05;9.33;;;;;;;24.33;58.36;99761.27;1697159;81;21529;-80
2021/08/01 04:27:46;;;;;;;11.05;8.00;;;;;;;24.44;58.04;99757.30;1696896;84;21078;-80
2021/08/01 04:30:13;;;;;;;16.97;7.85;;;;;;;24.47;57.73;99753.19;1727492;82;21498;-81
2021/08/01 04:32:39;;;;;;;11.68;7.55;;;;;;;24.59;57.81;99752.77;1716670;83;21036;-81
2021/08/01 04:35:06;;;;;;;9.10;7.60;;;;;;;24.96;56.68;99753.25;1710416;81;21008;-82
2021/08/01 04:37:32;;;;;;;8.10;7.30;;;;;;;25.56;55.42;99755.73;1720966;81;21026;-82
2021/08/01 04:39:58;;;;;;;11.80;7.42;;;;;;;26.24;54.12;99756.84;1704437;82;20990;-80
2021/08/01 04:42:24;;;;;;;14.47;7.35;;;;;;;26.86;51.81;99761.71;1720428;81;21949;-82
2021/08/01 04:44:51;;;;;;;15.63;9.15;;;;;;;27.06;51.15;99764.48;1738715;80;21510;-79
2021/08/01 04:47:17;;;;;;;7.75;6.95;;;;;;;26.97;50.84;99764.44;1744236;81;21044;-82
2021/08/01 04:49:43;;;;;;;12.45;7.70;;;;;;;26.97;50.84;99764.44;1746228;80;21823;-81
2021/08/01 04:52:19;;;;;;;9.70;7.00;;;;;;;26.76;51.74;99761.95;1751234;81;21029;-80
2021/08/01 04:54:47;;;;;;;8.78;6.67;;;;;;;26.51;52.48;99763.34;1730747;81;21117;-81
2021/08/01 04:57:13;;;;;;;10.43;7.83;;;;;;;26.26;53.22;99766.90;1722132;81;21079;-81
2021/08/01 04:59:40;;;;;;;8.73;7.67;;;;;;;26.06;53.59;99769.50;1714567;82;21072;-81
2021/08/01 05:02:06;;;;;;;9.00;7.60;;;;;;;25.93;54.08;99765.67;1698468;82;21037;-81
2021/08/01 05:04:33;;;;;;;8.35;7.65;;;;;;;25.88;54.57;99758.11;1719797;81;21735;-80
2021/08/01 05:06:59;;;;;;;11.20;7.72;;;;;;;26.00;54.31;99754.35;1725383;81;21088;-79
2021/08/01 05:09:25;;;;;;;10.55;8.10;;;;;;;26.33;53.67;99759.63;1719407;81;21525;-78
2021/08/01 05:11:51;;;;;;;8.38;7.30;;;;;;;26.77;52.62;99757.54;1713694;81;21149;-77
2021/08/01 05:14:17;;;;;;;8.63;7.75;;;;;;;27.17;51.43;99756.25;1717771;81;21378;-79
2021/08/01 05:16:43;;;;;;;7.55;7.00;;;;;;;27.61;50.73;99748.27;1714189;82;21068;-79
2021/08/01 05:19:09;;;;;;;7.47;6.75;;;;;;;28.11;49.55;99745.20;1721918;82;21510;-80
2021/08/01 05:21:37;;;;;;;8.20;7.40;;;;;;;28.60;48.44;99740.18;1718297;81;21330;-80
2021/08/01 05:24:04;;;;;;;8.98;6.80;;;;;;;29.10;48.27;99734.09;1697242;83;21053;-80
2021/08/01 05:26:31;;;;;;;8.10;6.92;;;;;;;29.68;46.68;99736.71;1704944;82;21052;-80
2021/08/01 05:28:57;;;;;;;11.83;6.03;;;;;;;30.17;45.01;99728.61;1706801;82;21355;-80
2021/08/01 05:31:23;;;;;;;9.00;5.95;;;;;;;30.61;43.23;99723.56;1715273;81;21021;-82
2021/08/01 05:33:49;;;;;;;10.65;7.08;;;;;;;30.88;42.86;99723.55;1717449;81;21128;-79
2021/08/01 05:36:15;;;;;;;7.28;6.53;;;;;;;31.06;41.99;99724.18;1718890;81;21206;-78
2021/08/01 05:38:41;;;;;;;6.37;5.97;;;;;;;31.22;41.66;99722.38;1718424;81;21136;-79
2021/08/01 05:41:11;;;;;;;9.38;6.25;;;;;;;31.36;41.25;99726.75;1708511;81;21116;-80
2021/08/01 05:43:39;;;;;;;6.28;5.65;;;;;;;31.35;40.97;99723.78;1716690;81;21116;-78
2021/08/01 05:46:12;;;;;;;7.30;5.70;;;;;;;31.42;41.02;99724.81;1721764;81;21075;-76
2021/08/01 05:48:41;;;;;;;7.05;6.37;;;;;;;31.40;40.84;99723.53;1689144;81;21208;-80
2021/08/01 05:51:08;;;;;;;5.87;5.35;;;;;;;31.30;41.42;99727.55;1713733;83;21092;-75
2021/08/01 05:53:35;;;;;;;10.15;5.62;;;;;;;31.35;40.92;99731.46;1707659;81;21176;-76
2021/08/01 05:56:10;;;;;;;5.97;5.55;;;;;;;31.49;40.69;99738.61;1714076;81;21017;-76
2021/08/01 05:58:37;;;;;;;7.08;5.33;;;;;;;31.49;40.56;99740.78;1710330;82;21049;-76
2021/08/01 06:01:15;;;;;;;6.05;5.55;;;;;;;31.34;40.69;99746.94;1709744;81;21063;-75
2021/08/01 06:03:43;;;;;;;5.28;4.92;;;;;;;31.09;41.14;99744.16;1721184;82;21033;-73
2021/08/01 06:06:13;;;;;;;6.08;5.53;;;;;;;31.07;41.61;99742.31;1710989;82;21056;-76
2021/08/01 06:08:43;;;;;;;8.83;5.20;;;;;;;31.12;41.06;99746.78;1712793;82;21111;-79
2021/08/01 06:11:10;;;;;;;7.20;4.60;;;;;;;31.07;41.15;99749.78;1706605;82;21097;-78
2021/08/01 06:13:39;;;;;;;6.87;4.53;;;;;;;30.98;41.30;99748.48;1710086;81;21111;-68
2021/08/01 06:16:10;;;;;;;5.78;4.17;;;;;;;30.88;41.24;99745.56;1724141;82;20965;-68
2021/08/01 06:18:38;;;;;;;4.67;4.25;;;;;;;30.82;41.71;99749.09;1726223;81;21192;-68
2021/08/01 06:21:14;;;;;;;5.15;4.65;;;;;;;30.93;41.63;99742.64;1714622;82;21016;-70
2021/08/01 06:23:50;;;;;;;5.67;5.17;;;;;;;31.20;41.47;99741.19;1717364;81;21132;-69
2021/08/01 06:26:19;;;;;;;5.42;4.87;;;;;;;31.59;40.45;99745.85;1723432;81;21057;-70
2021/08/01 06:28:47;;;;;;;5.45;5.00;;;;;;;31.99;39.92;99737.44;1733100;81;21496;-68
2021/08/01 06:31:13;;;;;;;6.83;4.60;;;;;;;32.27;38.86;99729.24;1716382;81;21029;-69
2021/08/01 06:33:40;;;;;;;5.17;4.78;;;;;;;32.20;39.26;99739.47;1713461;81;21005;-71
2021/08/01 06:36:11;;;;;;;5.33;4.83;;;;;;;31.91;39.36;99743.30;1745728;80;21010;-70
2021/08/01 06:38:40;;;;;;;6.45;4.58;;;;;;;31.70;40.04;99745.38;1745759;80;21202;-69
2021/08/01 06:41:08;;;;;;;5.25;4.95;;;;;;;31.72;40.51;99738.39;1737221;81;21124;-68
2021/08/01 06:43:34;;;;;;;5.42;4.78;;;;;;;31.79;39.90;99728.95;1744512;80;21024;-67
2021/08/01 06:46:01;;;;;;;6.00;5.30;;;;;;;31.61;40.09;99728.98;1734158;81;21050;-68
2021/08/01 06:48:52;;;;;;;7.95;6.08;;;;;;;31.38;40.98;99728.58;1686900;84;21068;-70
2021/08/01 06:54:10;;;;;;;6.55;5.28;;;;;;;31.12;41.81;99729.72;1564063;89;21119;-71
2021/08/01 06:56:37;;;;;;;5.42;4.95;;;;;;;31.36;41.55;99735.01;1609255;84;21779;-73
2021/08/01 06:59:03;;;;;;;7.22;5.33;;;;;;;31.60;41.23;99731.50;1686853;83;21509;-66
2021/08/01 07:01:41;;;;;;;5.28;4.83;;;;;;;31.72;41.01;99739.77;1667792;84;21140;-70
2021/08/01 07:04:22;;;;;;;5.85;4.92;;;;;;;31.70;41.04;99740.66;1740161;80;21030;-73
2021/08/01 07:07:00;;;;;;;5.35;4.90;;;;;;;31.73;41.38;99744.70;1737204;80;21069;-69
2021/08/01 07:09:26;;;;;;;8.78;5.08;;;;;;;31.80;41.05;99740.21;1743624;80;21557;-74
2021/08/01 07:11:56;;;;;;;5.20;4.25;;;;;;;31.78;41.18;99735.63;1711683;81;21042;-69
2021/08/01 07:14:24;;;;;;;5.00;4.62;;;;;;;31.77;41.09;99738.13;1702206;83;21039;-70
2021/08/01 07:16:53;;;;;;;5.53;5.08;;;;;;;31.73;41.35;99743.31;1698704;82;21117;-71
2021/08/01 07:19:20;;;;;;;5.42;4.70;;;;;;;31.83;40.64;99742.84;1688027;82;21023;-70
2021/08/01 07:21:46;;;;;;;5.60;5.15;;;;;;;31.69;40.95;99746.54;1702243;82;21448;-71
2021/08/01 07:24:12;;;;;;;6.10;4.45;;;;;;;31.51;41.72;99745.38;1679213;83;21038;-70
2021/08/01 07:26:39;;;;;;;5.33;4.95;;;;;;;31.66;41.57;99747.22;1701940;82;21048;-71
2021/08/01 07:29:06;;;;;;;4.95;4.65;;;;;;;31.75;41.28;99741.81;1693144;82;21511;-69
2021/08/01 07:31:32;;;;;;;4.62;4.17;;;;;;;31.58;41.10;99751.11;1709194;82;21507;-67
2021/08/01 07:34:00;;;;;;;5.75;5.30;;;;;;;31.37;41.84;99740.77;1682643;82;21101;-69
2021/08/01 07:36:28;;;;;;;5.65;5.17;;;;;;;31.25;42.28;99741.55;1676656;82;21056;-69
2021/08/01 07:38:54;;;;;;;5.83;5.30;;;;;;;31.11;42.04;99733.60;1702102;82;21050;-71
2021/08/01 07:41:21;;;;;;;5.70;5.05;;;;;;;30.82;42.87;99736.72;1688732;82;21016;-68
2021/08/01 07:43:47;;;;;;;6.28;5.78;;;;;;;30.55;43.93;99732.59;1691935;83;21658;-68
2021/08/01 07:46:13;;;;;;;6.37;4.80;;;;;;;30.35;44.14;99742.48;1697271;81;21095;-71
2021/08/01 07:48:39;;;;;;;6.45;5.40;;;;;;;30.16;45.07;99744.30;1691144;82;20998;-69
2021/08/01 07:51:05;;;;;;;8.63;5.70;;;;;;;30.05;45.25;99743.88;1686214;82;21578;-68
2021/08/01 07:53:32;;;;;;;6.67;6.28;;;;;;;30.05;45.31;99738.97;1679428;83;21014;-70
2021/08/01 07:55:58;;;;;;;6.65;5.20;;;;;;;30.14;45.75;99736.97;1688761;82;21033;-69
2021/08/01 07:58:24;;;;;;;5.80;5.00;;;;;;;30.15;45.76;99733.64;1701552;81;20995;-68
2021/08/01 08:00:50;;;;;;;5.37;4.87;;;;;;;30.07;44.72;99733.94;1712506;82;21139;-71
2021/08/01 08:03:24;;;;;;;5.75;5.22;;;;;;;29.94;45.38;99726.76;1700409;82;21027;-69
2021/08/01 08:05:47;;;;;;;5.78;5.28;;;;;;;29.89;45.28;99729.94;1710569;81;21134;-66
2021/08/01 08:08:14;;;;;;;6.10;4.65;;;;;;;29.77;44.81;99718.85;1713254;82;21064;-70
2021/08/01 08:10:41;;;;;;;11.43;5.47;;;;;;;29.58;44.78;99719.25;1717371;82;21135;-70
2021/08/01 08:13:07;;;;;;;5.45;5.05;;;;;;;29.47;45.40;99720.19;1696920;82;21071;-69
2021/08/01 08:15:35;;;;;;;5.53;5.22;;;;;;;29.41;45.83;99716.02;1689540;83;21616;-68
2021/08/01 08:18:03;;;;;;;6.08;5.50;;;;;;;29.40;46.05;99727.33;1699431;82;21116;-69
2021/08/01 08:20:29;;;;;;;8.50;5.60;;;;;;;29.33;46.44;99721.00;1717005;82;21037;-69
2021/08/01 08:22:55;;;;;;;13.40;6.50;;;;;;;29.31;46.59;99724.06;1707981;82;21048;-67
2021/08/01 08:25:23;;;;;;;7.17;6.35;;;;;;;29.40;46.64;99739.68;1696468;82;21127;-69
2021/08/01 08:27:49;;;;;;;6.50;6.00;;;;;;;29.40;46.47;99736.36;1698650;83;21057;-70
2021/08/01 08:30:15;;;;;;;8.75;5.62;;;;;;;29.35;46.65;99742.59;1694687;83;21657;-72
2021/08/01 08:32:41;;;;;;;8.48;5.90;;;;;;;29.29;46.93;99735.94;1693754;82;21089;-70
2021/08/01 08:35:09;;;;;;;7.30;5.72;;;;;;;29.38;46.88;99743.32;1687093;83;21064;-69
2021/08/01 08:37:50;;;;;;;6.72;6.10;;;;;;;29.51;46.52;99743.67;1683095;83;21090;-70
2021/08/01 08:40:22;;;;;;;6.45;6.05;;;;;;;29.54;46.57;99741.65;1660190;85;21057;-68
2021/08/01 08:42:51;;;;;;;6.83;6.12;;;;;;;29.47;46.92;99745.47;1677656;83;21079;-68
2021/08/01 08:45:18;;;;;;;6.10;5.50;;;;;;;29.34;47.49;99743.75;1693212;82;21126;-69
2021/08/01 08:47:47;;;;;;;6.53;6.12;;;;;;;29.30;47.49;99746.34;1716421;82;21025;-67
2021/08/01 08:50:16;;;;;;;8.25;6.10;;;;;;;29.28;47.64;99745.87;1704767;82;21014;-68
2021/08/01 08:52:46;;;;;;;7.47;6.92;;;;;;;29.25;47.45;99728.67;1708175;82;21066;-68
2021/08/01 08:55:14;;;;;;;6.62;5.85;;;;;;;29.23;47.92;99736.44;1725872;81;20996;-68
2021/08/01 08:57:47;;;;;;;6.60;6.17;;;;;;;29.24;48.06;99736.11;1703154;83;21011;-69
2021/08/01 09:00:14;;;;;;;6.37;5.97;;;;;;;29.20;47.99;99742.02;1711386;82;21014;-70
2021/08/01 09:02:40;;;;;;;7.03;6.47;;;;;;;29.16;48.42;99738.88;1713096;83;21136;-69
2021/08/01 09:05:09;;;;;;;10.30;6.20;;;;;;;29.20;48.31;99739.85;1701996;82;21144;-69
2021/08/01 09:07:38;;;;;;;10.13;6.37;;;;;;;29.27;48.26;99738.21;1710234;82;21547;-71
2021/08/01 09:10:07;;;;;;;6.70;6.08;;;;;;;29.36;48.20;99734.05;1706583;82;21080;-70
2021/08/01 09:12:47;;;;;;;7.12;5.83;;;;;;;29.48;47.94;99734.16;1712113;82;21010;-68
2021/08/01 09:15:24;;;;;;;6.92;6.20;;;;;;;29.57;47.87;99731.94;1710253;83;21015;-70
2021/08/01 09:17:53;;;;;;;6.45;5.67;;;;;;;29.53;47.80;99734.53;1708569;82;21037;-70
2021/08/01 09:20:27;;;;;;;6.95;6.25;;;;;;;29.43;47.80;99734.91;1693650;82;21039;-69
2021/08/01 09:23:07;;;;;;;6.10;5.42;;;;;;;29.25;48.28;99750.09;1723001;82;21136;-69
2021/08/01 09:25:41;;;;;;;7.35;5.95;;;;;;;29.18;48.81;99744.29;1710652;82;21094;-70
2021/08/01 09:28:17;;;;;;;9.35;6.70;;;;;;;29.19;48.79;99742.34;1703386;82;21611;-71
2021/08/01 09:30:59;;;;;;;6.90;6.30;;;;;;;29.26;48.90;99744.81;1697565;82;21037;-71
2021/08/01 09:33:41;;;;;;;12.33;6.72;;;;;;;29.35;48.70;99742.59;1700776;82;20965;-71
2021/08/01 09:36:20;;;;;;;6.78;6.28;;;;;;;29.45;48.43;99738.13;1714748;81;21538;-70
2021/08/01 09:38:56;;;;;;;6.47;5.83;;;;;;;29.52;48.04;99737.06;1713398;82;21130;-69
2021/08/01 09:41:34;;;;;;;7.00;5.95;;;;;;;29.55;48.41;99737.75;1703321;82;21545;-69
2021/08/01 09:44:04;;;;;;;8.15;5.83;;;;;;;29.60;48.55;99736.77;1693680;82;20989;-70
2021/08/01 09:46:46;;;;;;;7.72;5.92;;;;;;;29.62;48.23;99738.62;1708283;82;21034;-71
2021/08/01 09:49:20;;;;;;;8.63;5.85;;;;;;;29.64;48.03;99737.72;1704204;82;21550;-72
2021/08/01 09:51:53;;;;;;;6.40;5.90;;;;;;;29.69;48.26;99739.70;1713107;82;21026;-71
2021/08/01 09:54:23;;;;;;;6.85;5.92;;;;;;;29.77;48.30;99735.33;1710388;82;21062;-71
2021/08/01 09:57:00;;;;;;;7.37;6.70;;;;;;;29.78;48.00;99745.74;1658351;82;21035;-70
2021/08/01 09:59:27;;;;;;;;;;;;;;;29.77;48.17;99749.64;1635595;86;21570;-70
2021/08/01 10:01:57;;;;;;;8.18;5.25;;;;;;;29.83;48.11;99752.42;1643868;85;20127;-69
2021/08/01 10:04:31;;;;;;;13.03;5.03;;;;;;;29.83;47.85;99755.17;1638925;86;21680;-71
2021/08/01 10:07:13;;;;;;;4.83;4.42;;;;;;;29.82;47.35;99754.38;1657631;85;20998;-70
2021/08/01 10:09:43;;;;;;;4.58;4.17;;;;;;;29.77;47.17;99762.00;1643799;85;21125;-72
2021/08/01 10:12:11;;;;;;;5.08;4.67;;;;;;;29.63;47.57;99762.18;1672962;83;21095;-71
2021/08/01 10:14:39;;;;;;;8.15;4.50;;;;;;;29.42;47.82;99749.77;1677712;84;20968;-71
2021/08/01 10:17:06;;;;;;;5.08;4.67;;;;;;;29.25;48.49;99745.14;1683881;84;21102;-71
2021/08/01 10:19:35;;;;;;;6.10;4.33;;;;;;;29.17;48.81;99736.38;1687822;83;20960;-70
2021/08/01 10:22:04;;;;;;;5.50;4.65;;;;;;;29.17;49.08;99740.50;1678894;83;21054;-72
2021/08/01 10:24:38;;;;;;;5.60;4.72;;;;;;;29.15;48.81;99732.59;1663433;83;21492;-72
2021/08/01 10:27:07;;;;;;;6.20;5.62;;;;;;;29.09;48.92;99729.77;1672710;84;21092;-73
2021/08/01 10:29:54;;;;;;;6.58;5.00;;;;;;;29.04;49.16;99733.47;1681210;83;21521;-72
2021/08/01 10:32:22;;;;;;;9.10;5.53;;;;;;;29.01;49.76;99734.14;1663872;85;21529;-70
2021/08/01 10:35:09;;;;;;;9.00;5.60;;;;;;;28.98;50.10;99734.78;1663942;83;21114;-70
2021/08/01 10:37:48;;;;;;;7.65;5.40;;;;;;;28.93;50.11;99726.17;1637120;85;21323;-70
2021/08/01 10:40:22;;;;;;;6.85;6.20;;;;;;;29.05;50.30;99724.69;1685299;82;21137;-71
2021/08/01 10:42:52;;;;;;;6.00;5.50;;;;;;;29.09;50.23;99718.78;1682527;84;21117;-70
2021/08/01 10:45:20;;;;;;;6.10;4.92;;;;;;;29.10;50.03;99719.01;1687178;83;21082;-71
2021/08/01 10:47:49;;;;;;;7.42;5.00;;;;;;;29.15;50.33;99724.93;1686229;83;21007;-71
2021/08/01 10:50:25;;;;;;;5.80;5.37;;;;;;;29.20;49.90;99715.95;1679058;84;21077;-71
2021/08/01 10:53:22;;;;;;;8.20;4.90;;;;;;;29.29;49.95;99714.53;1664252;84;21058;-70
2021/08/01 10:55:55;;;;;;;11.28;5.78;;;;;;;29.31;50.10;99713.09;1676627;83;21071;-71
2021/08/01 10:58:21;;;;;;;5.95;5.28;;;;;;;29.29;50.43;99718.10;1679422;84;21609;-71
2021/08/01 11:01:01;;;;;;;6.83;6.05;;;;;;;29.26;50.65;99718.75;1683298;83;21611;-71
2021/08/01 11:03:29;;;;;;;9.40;5.80;;;;;;;29.24;50.51;99724.34;1682430;83;21234;-72
2021/08/01 11:05:57;;;;;;;7.35;6.47;;;;;;;29.21;50.58;99722.23;1687725;83;21278;-72
2021/08/01 11:08:26;;;;;;;7.40;5.78;;;;;;;29.20;50.76;99716.53;1688158;83;21023;-72
2021/08/01 11:11:15;;;;;;;8.70;5.70;;;;;;;29.20;50.66;99704.98;1680220;84;21106;-72
2021/08/01 11:13:48;;;;;;;8.58;6.03;;;;;;;29.15;50.39;99705.72;1680929;84;21083;-71
2021/08/01 11:16:48;;;;;;;14.83;6.05;;;;;;;29.04;50.69;99709.35;1676231;83;21084;-72
2021/08/01 11:19:34;;;;;;;10.03;6.47;;;;;;;28.97;50.86;99711.78;1666320;84;21022;-71
2021/08/01 11:22:01;;;;;;;9.95;6.40;;;;;;;28.96;50.90;99715.11;1685764;83;21100;-72
2021/08/01 11:24:30;;;;;;;13.93;6.47;;;;;;;29.00;50.72;99723.48;1685626;84;21087;-73
2021/08/01 11:27:15;;;;;;;9.83;5.97;;;;;;;29.08;51.02;99722.11;1693843;83;21607;-72
2021/08/01 11:29:56;;;;;;;7.28;6.60;;;;;;;29.16;51.16;99713.63;1682156;83;21527;-73
2021/08/01 11:32:51;;;;;;;9.73;6.75;;;;;;;29.25;51.00;99711.66;1664429;84;21102;-72
2021/08/01 11:35:19;;;;;;;11.95;6.40;;;;;;;29.33;51.01;99712.76;1680255;82;21098;-73
2021/08/01 11:37:46;;;;;;;7.12;6.47;;;;;;;29.38;50.87;99710.38;1684892;83;21057;-71
2021/08/01 11:40:13;;;;;;;7.15;6.42;;;;;;;29.40;50.67;99706.16;1678995;83;21083;-72
2021/08/01 11:42:39;;;;;;;6.87;6.20;;;;;;;29.44;50.79;99692.59;1685686;83;21020;-72
2021/08/01 11:45:11;;;;;;;6.70;6.08;;;;;;;29.48;50.85;99681.20;1671043;83;21086;-72
2021/08/01 11:47:44;;;;;;;7.53;5.70;;;;;;;29.53;50.97;99674.13;1676598;83;21024;-72
2021/08/01 11:50:13;;;;;;;6.62;6.03;;;;;;;29.57;50.78;99665.46;1661411;83;21573;-72
2021/08/01 11:52:44;;;;;;;6.95;6.33;;;;;;;29.62;50.22;99667.23;1675842;83;21144;-72
2021/08/01 11:55:18;;;;;;;5.85;5.30;;;;;;;29.63;49.74;99675.68;1666821;83;22175;-72